sensor_id;sensor_type;location;lat;lon;timestamp;P1;durP1;ratioP1;P2;durP2;ratioP2
57313;SDS011;53202;50.976;18.216;2023-01-19T00:06:26;186.20;;;88.70;;
57313;SDS011;53202;50.976;18.216;2023-01-19T00:16:15;85.20;;;24.40;;
57313;SDS011;53202;50.976;18.216;2023-01-19T00:26:01;164.70;;;71.40;;
57313;SDS011;53202;50.976;18.216;2023-01-19T00:35:49;192.70;;;68.90;;
57313;SDS011;53202;50.976;18.216;2023-01-19T00:45:35;155.30;;;75.20;;
57313;SDS011;53202;50.976;18.216;2023-01-19T00:55:19;107.90;;;60.50;;
57313;SDS011;53202;50.976;18.216;2023-01-19T01:05:05;43.20;;;21.10;;
57313;SDS011;53202;50.976;18.216;2023-01-19T01:14:59;123.40;;;59.90;;
57313;SDS011;53202;50.976;18.216;2023-01-19T01:24:43;142.70;;;70.30;;
57313;SDS011;53202;50.976;18.216;2023-01-19T01:34:27;182.50;;;80.20;;
57313;SDS011;53202;50.976;18.216;2023-01-19T01:54:41;176.90;;;89.10;;
57313;SDS011;53202;50.976;18.216;2023-01-19T01:57:08;227.20;;;108.10;;
57313;SDS011;53202;50.976;18.216;2023-01-19T02:07:21;123.20;;;70.30;;
57313;SDS011;53202;50.976;18.216;2023-01-19T02:17:57;158.80;;;70.80;;
57313;SDS011;53202;50.976;18.216;2023-01-19T02:27:42;124.90;;;48.70;;
57313;SDS011;53202;50.976;18.216;2023-01-19T02:37:27;119.00;;;62.70;;
57313;SDS011;53202;50.976;18.216;2023-01-19T02:47:18;148.20;;;70.80;;
57313;SDS011;53202;50.976;18.216;2023-01-19T02:57:30;123.20;;;49.80;;
57313;SDS011;53202;50.976;18.216;2023-01-19T03:07:55;205.30;;;86.90;;
57313;SDS011;53202;50.976;18.216;2023-01-19T03:18:09;97.40;;;34.80;;
57313;SDS011;53202;50.976;18.216;2023-01-19T03:27:55;183.20;;;90.60;;
57313;SDS011;53202;50.976;18.216;2023-01-19T03:37:44;125.80;;;36.90;;
57313;SDS011;53202;50.976;18.216;2023-01-19T03:47:29;201.70;;;111.20;;
57313;SDS011;53202;50.976;18.216;2023-01-19T03:57:20;194.40;;;83.90;;
57313;SDS011;53202;50.976;18.216;2023-01-19T04:07:04;179.40;;;82.80;;
57313;SDS011;53202;50.976;18.216;2023-01-19T04:16:48;198.60;;;91.60;;
57313;SDS011;53202;50.976;18.216;2023-01-19T04:26:32;242.10;;;119.80;;
57313;SDS011;53202;50.976;18.216;2023-01-19T04:36:15;118.20;;;76.20;;
57313;SDS011;53202;50.976;18.216;2023-01-19T04:45:59;167.60;;;87.00;;
57313;SDS011;53202;50.976;18.216;2023-01-19T04:55:44;138.20;;;79.10;;
57313;SDS011;53202;50.976;18.216;2023-01-19T05:05:29;127.60;;;75.40;;
57313;SDS011;53202;50.976;18.216;2023-01-19T05:15:16;162.80;;;80.70;;
57313;SDS011;53202;50.976;18.216;2023-01-19T05:25:00;157.40;;;75.30;;
57313;SDS011;53202;50.976;18.216;2023-01-19T05:34:45;160.80;;;83.50;;
57313;SDS011;53202;50.976;18.216;2023-01-19T05:44:28;97.50;;;41.50;;
57313;SDS011;53202;50.976;18.216;2023-01-19T05:54:12;164.70;;;71.80;;
57313;SDS011;53202;50.976;18.216;2023-01-19T06:03:59;150.40;;;75.00;;
57313;SDS011;53202;50.976;18.216;2023-01-19T06:13:42;136.30;;;70.20;;
57313;SDS011;53202;50.976;18.216;2023-01-19T06:23:28;128.80;;;54.80;;
57313;SDS011;53202;50.976;18.216;2023-01-19T06:33:14;125.60;;;58.90;;
57313;SDS011;53202;50.976;18.216;2023-01-19T06:43:00;85.20;;;49.60;;
57313;SDS011;53202;50.976;18.216;2023-01-19T06:52:43;74.40;;;43.50;;
57313;SDS011;53202;50.976;18.216;2023-01-19T07:02:33;100.30;;;52.90;;
57313;SDS011;53202;50.976;18.216;2023-01-19T07:12:17;54.10;;;37.70;;
57313;SDS011;53202;50.976;18.216;2023-01-19T07:22:00;67.00;;;45.30;;
57313;SDS011;53202;50.976;18.216;2023-01-19T07:31:46;58.30;;;35.00;;
57313;SDS011;53202;50.976;18.216;2023-01-19T07:41:30;62.90;;;39.90;;
57313;SDS011;53202;50.976;18.216;2023-01-19T07:51:15;50.70;;;40.30;;
57313;SDS011;53202;50.976;18.216;2023-01-19T08:01:09;64.40;;;39.70;;
57313;SDS011;53202;50.976;18.216;2023-01-19T08:10:56;77.20;;;46.80;;
57313;SDS011;53202;50.976;18.216;2023-01-19T08:20:41;47.50;;;31.30;;
57313;SDS011;53202;50.976;18.216;2023-01-19T08:30:28;44.00;;;34.60;;
57313;SDS011;53202;50.976;18.216;2023-01-19T08:40:27;62.80;;;41.90;;
57313;SDS011;53202;50.976;18.216;2023-01-19T08:50:23;53.00;;;41.70;;
57313;SDS011;53202;50.976;18.216;2023-01-19T09:00:08;44.90;;;29.50;;
57313;SDS011;53202;50.976;18.216;2023-01-19T09:09:55;45.60;;;32.10;;
57313;SDS011;53202;50.976;18.216;2023-01-19T09:19:39;125.20;;;51.70;;
57313;SDS011;53202;50.976;18.216;2023-01-19T09:29:25;88.10;;;42.70;;
57313;SDS011;53202;50.976;18.216;2023-01-19T09:39:10;86.60;;;38.70;;
57313;SDS011;53202;50.976;18.216;2023-01-19T09:48:58;80.50;;;43.70;;
57313;SDS011;53202;50.976;18.216;2023-01-19T09:59:13;67.60;;;42.00;;
57313;SDS011;53202;50.976;18.216;2023-01-19T10:09:55;74.50;;;43.90;;
57313;SDS011;53202;50.976;18.216;2023-01-19T10:20:21;95.50;;;53.00;;
57313;SDS011;53202;50.976;18.216;2023-01-19T10:30:19;83.00;;;46.60;;
57313;SDS011;53202;50.976;18.216;2023-01-19T10:40:14;76.50;;;45.00;;
57313;SDS011;53202;50.976;18.216;2023-01-19T10:50:39;85.20;;;45.50;;
57313;SDS011;53202;50.976;18.216;2023-01-19T10:53:16;98.60;;;56.20;;
57313;SDS011;53202;50.976;18.216;2023-01-19T11:03:23;58.60;;;35.40;;
57313;SDS011;53202;50.976;18.216;2023-01-19T11:13:16;86.60;;;45.30;;
57313;SDS011;53202;50.976;18.216;2023-01-19T11:23:17;115.50;;;43.60;;
57313;SDS011;53202;50.976;18.216;2023-01-19T11:33:22;113.30;;;50.70;;
57313;SDS011;53202;50.976;18.216;2023-01-19T11:43:20;40.00;;;22.50;;
57313;SDS011;53202;50.976;18.216;2023-01-19T11:53:24;95.80;;;44.00;;
57313;SDS011;53202;50.976;18.216;2023-01-19T12:03:20;128.00;;;45.30;;
57313;SDS011;53202;50.976;18.216;2023-01-19T12:13:26;86.80;;;40.00;;
57313;SDS011;53202;50.976;18.216;2023-01-19T12:23:21;127.50;;;39.70;;
57313;SDS011;53202;50.976;18.216;2023-01-19T12:33:20;65.30;;;38.10;;
57313;SDS011;53202;50.976;18.216;2023-01-19T12:43:45;62.50;;;33.50;;
57313;SDS011;53202;50.976;18.216;2023-01-19T12:53:34;68.20;;;32.50;;
57313;SDS011;53202;50.976;18.216;2023-01-19T13:03:46;64.80;;;33.80;;
57313;SDS011;53202;50.976;18.216;2023-01-19T13:14:32;38.90;;;25.40;;
57313;SDS011;53202;50.976;18.216;2023-01-19T13:34:52;91.20;;;34.50;;
57313;SDS011;53202;50.976;18.216;2023-01-19T13:45:02;61.00;;;27.60;;
57313;SDS011;53202;50.976;18.216;2023-01-19T13:55:12;59.20;;;32.10;;
57313;SDS011;53202;50.976;18.216;2023-01-19T14:05:30;59.00;;;35.20;;
57313;SDS011;53202;50.976;18.216;2023-01-19T14:15:38;61.40;;;34.50;;
57313;SDS011;53202;50.976;18.216;2023-01-19T14:25:28;46.90;;;31.00;;
57313;SDS011;53202;50.976;18.216;2023-01-19T14:35:26;63.70;;;37.20;;
57313;SDS011;53202;50.976;18.216;2023-01-19T14:45:24;72.00;;;37.90;;
57313;SDS011;53202;50.976;18.216;2023-01-19T14:55:20;87.20;;;38.70;;
57313;SDS011;53202;50.976;18.216;2023-01-19T15:05:09;99.30;;;47.20;;
57313;SDS011;53202;50.976;18.216;2023-01-19T15:10:03;110.80;;;58.70;;
57313;SDS011;53202;50.976;18.216;2023-01-19T15:19:50;76.30;;;39.40;;
57313;SDS011;53202;50.976;18.216;2023-01-19T15:29:36;84.70;;;40.40;;
57313;SDS011;53202;50.976;18.216;2023-01-19T15:39:24;123.30;;;44.60;;
57313;SDS011;53202;50.976;18.216;2023-01-19T15:49:08;80.20;;;32.80;;
57313;SDS011;53202;50.976;18.216;2023-01-19T15:58:53;87.70;;;40.20;;
57313;SDS011;53202;50.976;18.216;2023-01-19T16:08:38;56.00;;;34.70;;
57313;SDS011;53202;50.976;18.216;2023-01-19T16:18:33;136.80;;;34.70;;
57313;SDS011;53202;50.976;18.216;2023-01-19T16:28:25;77.50;;;41.50;;
57313;SDS011;53202;50.976;18.216;2023-01-19T16:38:10;66.60;;;38.80;;
57313;SDS011;53202;50.976;18.216;2023-01-19T16:43:02;114.90;;;56.60;;
57313;SDS011;53202;50.976;18.216;2023-01-19T16:52:45;108.10;;;49.30;;
57313;SDS011;53202;50.976;18.216;2023-01-19T17:02:29;94.10;;;42.60;;
57313;SDS011;53202;50.976;18.216;2023-01-19T17:12:18;106.50;;;43.40;;
57313;SDS011;53202;50.976;18.216;2023-01-19T17:22:04;109.50;;;55.90;;
57313;SDS011;53202;50.976;18.216;2023-01-19T17:31:49;99.70;;;41.40;;
57313;SDS011;53202;50.976;18.216;2023-01-19T17:41:33;91.20;;;48.10;;
57313;SDS011;53202;50.976;18.216;2023-01-19T17:51:19;78.10;;;43.70;;
57313;SDS011;53202;50.976;18.216;2023-01-19T18:01:10;82.80;;;43.50;;
57313;SDS011;53202;50.976;18.216;2023-01-19T18:10:57;80.30;;;43.60;;
57313;SDS011;53202;50.976;18.216;2023-01-19T18:20:42;62.60;;;36.00;;
57313;SDS011;53202;50.976;18.216;2023-01-19T18:30:29;52.50;;;37.10;;
57313;SDS011;53202;50.976;18.216;2023-01-19T18:40:13;77.80;;;37.00;;
57313;SDS011;53202;50.976;18.216;2023-01-19T18:49:57;47.60;;;25.40;;
57313;SDS011;53202;50.976;18.216;2023-01-19T18:59:42;61.70;;;39.50;;
57313;SDS011;53202;50.976;18.216;2023-01-19T19:09:27;70.00;;;38.30;;
57313;SDS011;53202;50.976;18.216;2023-01-19T19:19:12;70.70;;;45.00;;
57313;SDS011;53202;50.976;18.216;2023-01-19T19:28:59;64.80;;;41.40;;
57313;SDS011;53202;50.976;18.216;2023-01-19T19:38:45;47.20;;;36.60;;
57313;SDS011;53202;50.976;18.216;2023-01-19T19:48:31;57.60;;;39.60;;
57313;SDS011;53202;50.976;18.216;2023-01-19T19:58:26;101.70;;;66.00;;
57313;SDS011;53202;50.976;18.216;2023-01-19T20:08:12;76.90;;;45.00;;
57313;SDS011;53202;50.976;18.216;2023-01-19T20:18:05;101.70;;;44.30;;
57313;SDS011;53202;50.976;18.216;2023-01-19T20:27:50;107.80;;;55.80;;
57313;SDS011;53202;50.976;18.216;2023-01-19T20:37:34;105.30;;;57.50;;
57313;SDS011;53202;50.976;18.216;2023-01-19T20:47:20;87.80;;;48.60;;
57313;SDS011;53202;50.976;18.216;2023-01-19T20:57:04;28.00;;;18.70;;
57313;SDS011;53202;50.976;18.216;2023-01-19T21:06:50;213.90;;;91.20;;
57313;SDS011;53202;50.976;18.216;2023-01-19T21:16:34;218.00;;;104.80;;
57313;SDS011;53202;50.976;18.216;2023-01-19T21:26:20;168.60;;;96.80;;
57313;SDS011;53202;50.976;18.216;2023-01-19T21:36:06;180.20;;;88.70;;
57313;SDS011;53202;50.976;18.216;2023-01-19T21:41:03;229.30;;;120.90;;
57313;SDS011;53202;50.976;18.216;2023-01-19T21:50:56;155.30;;;62.10;;
57313;SDS011;53202;50.976;18.216;2023-01-19T22:00:40;172.40;;;74.20;;
57313;SDS011;53202;50.976;18.216;2023-01-19T22:10:25;137.60;;;70.30;;
57313;SDS011;53202;50.976;18.216;2023-01-19T22:20:09;174.80;;;85.10;;
57313;SDS011;53202;50.976;18.216;2023-01-19T22:29:52;139.50;;;75.70;;
57313;SDS011;53202;50.976;18.216;2023-01-19T22:39:37;232.80;;;90.40;;
57313;SDS011;53202;50.976;18.216;2023-01-19T22:49:20;180.50;;;92.70;;
57313;SDS011;53202;50.976;18.216;2023-01-19T22:59:04;219.50;;;100.30;;
57313;SDS011;53202;50.976;18.216;2023-01-19T23:08:51;113.70;;;66.40;;
57313;SDS011;53202;50.976;18.216;2023-01-19T23:18:39;140.50;;;74.90;;
57313;SDS011;53202;50.976;18.216;2023-01-19T23:28:26;126.40;;;73.20;;
57313;SDS011;53202;50.976;18.216;2023-01-19T23:38:10;153.80;;;74.90;;
57313;SDS011;53202;50.976;18.216;2023-01-19T23:47:55;93.60;;;28.70;;
57313;SDS011;53202;50.976;18.216;2023-01-19T23:57:41;150.90;;;76.10;;
